Tzoanna Vi — SYHY — position and weather

sailwx.info

Track history (hours):
 
Tides and Currents Weather Stations Pressure Air Temp Water Temp Dewpoint Dewpoint Depression Visibility Wind Speed Wind Dir Waves Ship Positions

Tzoanna Vi

Last reported at 2014-Nov-01 03:10 UTC. Time now 2014-Nov-01 06:51 UTC.
Position N 38°03' E 024°11'.

Length 84 m; draft 5.5 m.

Type: Cargo ship. MMSI: 237991700.

Date/timePositionNaut miles runAvg speedWind from/ knotsBaromVisibWave heightAir tempDewpointWater temp
2014-Nov-01 03:10N 38°03' E 024°11'  
2014-Oct-29 21:33N 37°54' E 024°33'24 7.9
2014-Oct-29 18:32N 37°32' E 024°23'8 8.3
2014-Oct-29 17:33N 37°24' E 024°20'10 8.1
2014-Oct-29 16:16N 37°13' E 024°19'6 8.4
2014-Oct-29 15:33N 37°07' E 024°19'9 8.5
2014-Oct-29 14:33N 36°59' E 024°19'8 7.9
2014-Oct-29 13:33N 36°51' E 024°19'8 7.7
2014-Oct-29 12:33N 36°43' E 024°19'5 4.7
2014-Oct-29 11:33N 36°39' E 024°21'0 0.1
2014-Oct-29 10:33N 36°39' E 024°21'0 0.0
2014-Oct-29 09:33N 36°39' E 024°21'0 0.0
2014-Oct-29 08:33N 36°39' E 024°21'0 0.0
2014-Oct-29 07:33N 36°39' E 024°21'0 0.0
2014-Oct-29 06:33N 36°39' E 024°21'0 0.2
2014-Oct-29 05:33N 36°39' E 024°21'0 0.2
2014-Oct-29 04:33N 36°39' E 024°21'0 0.0
2014-Oct-29 03:33N 36°39' E 024°21'0 0.0
2014-Oct-29 02:33N 36°39' E 024°21'0 0.0
2014-Oct-29 01:33N 36°39' E 024°21'0 0.0
2014-Oct-29 00:33N 36°39' E 024°21'6 5.5
2014-Oct-28 23:32N 36°44' E 024°18'1010.3
2014-Oct-28 22:33N 36°54' E 024°19'10 9.8
2014-Oct-28 21:33N 37°04' E 024°19'10 9.9
2014-Oct-28 20:33N 37°14' E 024°19'1010.1
2014-Oct-28 19:33N 37°24' E 024°20'1010.0
2014-Oct-28 18:33N 37°33' E 024°24'1010.1
2014-Oct-28 17:33N 37°42' E 024°29'1110.6
2014-Oct-28 16:31N 37°53' E 024°33'31 9.8
2014-Oct-28 13:21N 38°24' E 024°38'  
2014-Oct-26 06:33N 37°56' E 024°29'11 8.1
2014-Oct-26 05:12N 37°58' E 024°16'5 8.0
2014-Oct-26 04:33N 38°01' E 024°11'9 9.2
2014-Oct-26 03:33N 38°10' E 024°06'5 0.2
2014-Oct-25 05:20N 38°05' E 024°09'8 9.2
2014-Oct-25 04:25N 37°58' E 024°15'  
2014-Oct-22 06:07N 37°56' E 024°31'16 8.0
2014-Oct-22 04:06N 38°00' E 024°11'5 8.9
2014-Oct-22 03:34N 38°05' E 024°09'  
Track history (hours):
 
Tides and Currents Weather Stations Pressure Air Temp Water Temp Dewpoint Dewpoint Depression Visibility Wind Speed Wind Dir Waves Ship Positions

Tzoanna Vi

Last reported at 2014-Nov-01 03:10 UTC. Time now 2014-Nov-01 06:51 UTC.
Position N 38°03' E 024°11'.

Length 84 m; draft 5.5 m.

Type: Cargo ship. MMSI: 237991700.

Date/timePositionNaut miles runAvg speedWind from/ knotsBaromVisibWave heightAir tempDewpointWater temp
2014-Nov-01 03:10N 38°03' E 024°11'  
2014-Oct-29 21:33N 37°54' E 024°33'24 7.9
2014-Oct-29 18:32N 37°32' E 024°23'8 8.3
2014-Oct-29 17:33N 37°24' E 024°20'10 8.1
2014-Oct-29 16:16N 37°13' E 024°19'6 8.4
2014-Oct-29 15:33N 37°07' E 024°19'9 8.5
2014-Oct-29 14:33N 36°59' E 024°19'8 7.9
2014-Oct-29 13:33N 36°51' E 024°19'8 7.7
2014-Oct-29 12:33N 36°43' E 024°19'5 4.7
2014-Oct-29 11:33N 36°39' E 024°21'0 0.1
2014-Oct-29 10:33N 36°39' E 024°21'0 0.0
2014-Oct-29 09:33N 36°39' E 024°21'0 0.0
2014-Oct-29 08:33N 36°39' E 024°21'0 0.0
2014-Oct-29 07:33N 36°39' E 024°21'0 0.0
2014-Oct-29 06:33N 36°39' E 024°21'0 0.2
2014-Oct-29 05:33N 36°39' E 024°21'0 0.2
2014-Oct-29 04:33N 36°39' E 024°21'0 0.0
2014-Oct-29 03:33N 36°39' E 024°21'0 0.0
2014-Oct-29 02:33N 36°39' E 024°21'0 0.0
2014-Oct-29 01:33N 36°39' E 024°21'0 0.0
2014-Oct-29 00:33N 36°39' E 024°21'6 5.5
2014-Oct-28 23:32N 36°44' E 024°18'1010.3
2014-Oct-28 22:33N 36°54' E 024°19'10 9.8
2014-Oct-28 21:33N 37°04' E 024°19'10 9.9
2014-Oct-28 20:33N 37°14' E 024°19'1010.1
2014-Oct-28 19:33N 37°24' E 024°20'1010.0
2014-Oct-28 18:33N 37°33' E 024°24'1010.1
2014-Oct-28 17:33N 37°42' E 024°29'1110.6
2014-Oct-28 16:31N 37°53' E 024°33'31 9.8
2014-Oct-28 13:21N 38°24' E 024°38'  
2014-Oct-26 06:33N 37°56' E 024°29'11 8.1
2014-Oct-26 05:12N 37°58' E 024°16'5 8.0
2014-Oct-26 04:33N 38°01' E 024°11'9 9.2
2014-Oct-26 03:33N 38°10' E 024°06'5 0.2
2014-Oct-25 05:20N 38°05' E 024°09'8 9.2
2014-Oct-25 04:25N 37°58' E 024°15'  
2014-Oct-22 06:07N 37°56' E 024°31'16 8.0
2014-Oct-22 04:06N 38°00' E 024°11'5 8.9
2014-Oct-22 03:34N 38°05' E 024°09'  

Dump ship's entire track history